sensor_id;sensor_type;location;lat;lon;timestamp;temperature;humidity
59961;DHT22;55902;-37.980;-63.602;2023-04-15T00:01:14;13.90;71.10
59961;DHT22;55902;-37.980;-63.602;2023-04-15T00:03:44;13.90;71.20
59961;DHT22;55902;-37.980;-63.602;2023-04-15T00:06:12;13.90;72.00
59961;DHT22;55902;-37.980;-63.602;2023-04-15T00:08:40;13.90;72.20
59961;DHT22;55902;-37.980;-63.602;2023-04-15T00:11:07;13.90;71.60
59961;DHT22;55902;-37.980;-63.602;2023-04-15T00:13:34;13.90;72.70
59961;DHT22;55902;-37.980;-63.602;2023-04-15T00:16:01;13.90;73.00
59961;DHT22;55902;-37.980;-63.602;2023-04-15T00:18:29;13.90;72.60
59961;DHT22;55902;-37.980;-63.602;2023-04-15T00:20:57;13.90;73.20
59961;DHT22;55902;-37.980;-63.602;2023-04-15T00:23:25;13.90;73.10
59961;DHT22;55902;-37.980;-63.602;2023-04-15T00:25:52;13.90;73.60
59961;DHT22;55902;-37.980;-63.602;2023-04-15T00:28:19;13.90;73.30
59961;DHT22;55902;-37.980;-63.602;2023-04-15T00:30:46;13.90;73.40
59961;DHT22;55902;-37.980;-63.602;2023-04-15T00:33:14;13.80;73.00
59961;DHT22;55902;-37.980;-63.602;2023-04-15T00:35:44;13.80;73.30
59961;DHT22;55902;-37.980;-63.602;2023-04-15T00:38:11;13.80;73.90
59961;DHT22;55902;-37.980;-63.602;2023-04-15T00:40:38;13.80;73.70
59961;DHT22;55902;-37.980;-63.602;2023-04-15T00:43:05;13.70;74.00
59961;DHT22;55902;-37.980;-63.602;2023-04-15T00:45:32;13.70;73.80
59961;DHT22;55902;-37.980;-63.602;2023-04-15T00:47:59;13.70;73.90
59961;DHT22;55902;-37.980;-63.602;2023-04-15T00:50:26;13.60;73.70
59961;DHT22;55902;-37.980;-63.602;2023-04-15T00:52:53;13.70;73.10
59961;DHT22;55902;-37.980;-63.602;2023-04-15T00:55:20;13.70;72.80
59961;DHT22;55902;-37.980;-63.602;2023-04-15T00:57:47;13.70;72.70
59961;DHT22;55902;-37.980;-63.602;2023-04-15T01:00:14;13.70;72.90
59961;DHT22;55902;-37.980;-63.602;2023-04-15T01:02:41;13.70;72.30
59961;DHT22;55902;-37.980;-63.602;2023-04-15T01:08:30;13.70;72.50
59961;DHT22;55902;-37.980;-63.602;2023-04-15T01:11:00;13.80;72.60
59961;DHT22;55902;-37.980;-63.602;2023-04-15T01:13:31;13.80;72.20
59961;DHT22;55902;-37.980;-63.602;2023-04-15T01:16:00;13.80;72.00
59961;DHT22;55902;-37.980;-63.602;2023-04-15T01:18:29;13.80;72.70
59961;DHT22;55902;-37.980;-63.602;2023-04-15T01:20:57;13.80;73.10
59961;DHT22;55902;-37.980;-63.602;2023-04-15T01:23:26;13.80;73.40
59961;DHT22;55902;-37.980;-63.602;2023-04-15T01:25:53;13.80;73.10
59961;DHT22;55902;-37.980;-63.602;2023-04-15T01:28:21;13.80;72.50
59961;DHT22;55902;-37.980;-63.602;2023-04-15T01:30:48;13.80;72.70
59961;DHT22;55902;-37.980;-63.602;2023-04-15T01:33:15;13.80;73.40
59961;DHT22;55902;-37.980;-63.602;2023-04-15T01:35:42;13.70;72.60
59961;DHT22;55902;-37.980;-63.602;2023-04-15T01:38:12;13.70;73.10
59961;DHT22;55902;-37.980;-63.602;2023-04-15T01:40:39;13.70;73.50
59961;DHT22;55902;-37.980;-63.602;2023-04-15T01:43:06;13.70;74.10
59961;DHT22;55902;-37.980;-63.602;2023-04-15T01:45:33;13.70;75.30
59961;DHT22;55902;-37.980;-63.602;2023-04-15T01:48:00;13.60;75.20
59961;DHT22;55902;-37.980;-63.602;2023-04-15T01:50:27;13.60;74.80
59961;DHT22;55902;-37.980;-63.602;2023-04-15T01:52:54;13.60;75.10
59961;DHT22;55902;-37.980;-63.602;2023-04-15T01:55:21;13.60;75.70
59961;DHT22;55902;-37.980;-63.602;2023-04-15T01:57:48;13.60;75.30
59961;DHT22;55902;-37.980;-63.602;2023-04-15T02:00:15;13.60;75.90
59961;DHT22;55902;-37.980;-63.602;2023-04-15T02:02:42;13.50;75.60
59961;DHT22;55902;-37.980;-63.602;2023-04-15T02:05:13;13.50;75.60
59961;DHT22;55902;-37.980;-63.602;2023-04-15T02:07:44;13.60;75.50
59961;DHT22;55902;-37.980;-63.602;2023-04-15T02:10:11;13.60;75.80
59961;DHT22;55902;-37.980;-63.602;2023-04-15T02:12:39;13.60;75.70
59961;DHT22;55902;-37.980;-63.602;2023-04-15T02:15:08;13.60;76.30
59961;DHT22;55902;-37.980;-63.602;2023-04-15T02:17:36;13.60;76.30
59961;DHT22;55902;-37.980;-63.602;2023-04-15T02:20:03;13.60;76.50
59961;DHT22;55902;-37.980;-63.602;2023-04-15T02:22:34;13.60;76.20
59961;DHT22;55902;-37.980;-63.602;2023-04-15T02:25:00;13.60;75.70
59961;DHT22;55902;-37.980;-63.602;2023-04-15T02:27:27;13.60;76.50
59961;DHT22;55902;-37.980;-63.602;2023-04-15T02:29:55;13.60;77.40
59961;DHT22;55902;-37.980;-63.602;2023-04-15T02:32:22;13.60;77.30
59961;DHT22;55902;-37.980;-63.602;2023-04-15T02:34:49;13.60;76.80
59961;DHT22;55902;-37.980;-63.602;2023-04-15T02:37:16;13.60;77.90
59961;DHT22;55902;-37.980;-63.602;2023-04-15T02:39:45;13.60;77.60
59961;DHT22;55902;-37.980;-63.602;2023-04-15T02:42:12;13.60;78.20
59961;DHT22;55902;-37.980;-63.602;2023-04-15T02:44:39;13.60;78.30
59961;DHT22;55902;-37.980;-63.602;2023-04-15T02:47:06;13.50;77.90
59961;DHT22;55902;-37.980;-63.602;2023-04-15T02:49:33;13.50;78.20
59961;DHT22;55902;-37.980;-63.602;2023-04-15T02:52:01;13.50;78.40
59961;DHT22;55902;-37.980;-63.602;2023-04-15T02:54:27;13.50;78.10
59961;DHT22;55902;-37.980;-63.602;2023-04-15T02:56:55;13.60;77.90
59961;DHT22;55902;-37.980;-63.602;2023-04-15T02:59:22;13.60;77.30
59961;DHT22;55902;-37.980;-63.602;2023-04-15T03:01:49;13.60;76.90
59961;DHT22;55902;-37.980;-63.602;2023-04-15T03:04:20;13.60;76.60
59961;DHT22;55902;-37.980;-63.602;2023-04-15T03:06:55;13.70;76.90
59961;DHT22;55902;-37.980;-63.602;2023-04-15T03:09:22;13.70;77.20
59961;DHT22;55902;-37.980;-63.602;2023-04-15T03:11:50;13.70;77.00
59961;DHT22;55902;-37.980;-63.602;2023-04-15T03:14:22;13.70;76.80
59961;DHT22;55902;-37.980;-63.602;2023-04-15T03:16:50;13.70;76.70
59961;DHT22;55902;-37.980;-63.602;2023-04-15T03:19:21;13.70;77.70
59961;DHT22;55902;-37.980;-63.602;2023-04-15T03:21:50;13.70;77.20
59961;DHT22;55902;-37.980;-63.602;2023-04-15T03:24:23;13.70;77.10
59961;DHT22;55902;-37.980;-63.602;2023-04-15T03:26:51;13.70;77.60
59961;DHT22;55902;-37.980;-63.602;2023-04-15T03:29:20;13.70;77.20
59961;DHT22;55902;-37.980;-63.602;2023-04-15T03:31:48;13.80;76.90
59961;DHT22;55902;-37.980;-63.602;2023-04-15T03:34:17;13.70;76.90
59961;DHT22;55902;-37.980;-63.602;2023-04-15T03:40:12;13.70;77.10
59961;DHT22;55902;-37.980;-63.602;2023-04-15T03:42:42;13.70;76.50
59961;DHT22;55902;-37.980;-63.602;2023-04-15T03:45:12;13.80;76.60
59961;DHT22;55902;-37.980;-63.602;2023-04-15T03:47:41;13.80;76.00
59961;DHT22;55902;-37.980;-63.602;2023-04-15T03:50:11;13.80;76.10
59961;DHT22;55902;-37.980;-63.602;2023-04-15T03:52:38;13.80;76.10
59961;DHT22;55902;-37.980;-63.602;2023-04-15T03:55:13;13.90;76.80
59961;DHT22;55902;-37.980;-63.602;2023-04-15T03:57:41;13.90;76.60
59961;DHT22;55902;-37.980;-63.602;2023-04-15T04:00:18;13.90;75.90
59961;DHT22;55902;-37.980;-63.602;2023-04-15T04:02:45;13.90;75.90
59961;DHT22;55902;-37.980;-63.602;2023-04-15T04:05:14;13.90;77.30
59961;DHT22;55902;-37.980;-63.602;2023-04-15T04:07:44;13.80;78.40
59961;DHT22;55902;-37.980;-63.602;2023-04-15T04:10:22;13.70;77.80
59961;DHT22;55902;-37.980;-63.602;2023-04-15T04:12:49;13.50;78.80
59961;DHT22;55902;-37.980;-63.602;2023-04-15T04:15:17;13.30;80.50
59961;DHT22;55902;-37.980;-63.602;2023-04-15T04:17:44;13.20;79.80
59961;DHT22;55902;-37.980;-63.602;2023-04-15T04:20:11;13.10;80.10
59961;DHT22;55902;-37.980;-63.602;2023-04-15T04:22:39;13.00;79.70
59961;DHT22;55902;-37.980;-63.602;2023-04-15T04:25:07;13.00;79.70
59961;DHT22;55902;-37.980;-63.602;2023-04-15T04:27:35;13.00;82.50
59961;DHT22;55902;-37.980;-63.602;2023-04-15T04:30:03;13.00;82.80
59961;DHT22;55902;-37.980;-63.602;2023-04-15T04:32:30;12.90;85.10
59961;DHT22;55902;-37.980;-63.602;2023-04-15T04:34:57;12.90;83.80
59961;DHT22;55902;-37.980;-63.602;2023-04-15T04:37:24;12.90;82.80
59961;DHT22;55902;-37.980;-63.602;2023-04-15T04:39:51;12.90;82.50
59961;DHT22;55902;-37.980;-63.602;2023-04-15T04:42:18;13.00;81.40
59961;DHT22;55902;-37.980;-63.602;2023-04-15T04:44:45;13.00;82.90
59961;DHT22;55902;-37.980;-63.602;2023-04-15T04:47:13;13.00;86.40
59961;DHT22;55902;-37.980;-63.602;2023-04-15T04:49:39;13.00;86.60
59961;DHT22;55902;-37.980;-63.602;2023-04-15T04:52:06;13.00;84.40
59961;DHT22;55902;-37.980;-63.602;2023-04-15T04:54:33;13.00;85.00
59961;DHT22;55902;-37.980;-63.602;2023-04-15T04:57:01;13.00;84.80
59961;DHT22;55902;-37.980;-63.602;2023-04-15T04:59:28;13.10;82.90
59961;DHT22;55902;-37.980;-63.602;2023-04-15T05:01:55;13.10;83.70
59961;DHT22;55902;-37.980;-63.602;2023-04-15T05:04:22;13.20;83.80
59961;DHT22;55902;-37.980;-63.602;2023-04-15T05:06:49;13.20;85.20
59961;DHT22;55902;-37.980;-63.602;2023-04-15T05:09:16;13.20;84.90
59961;DHT22;55902;-37.980;-63.602;2023-04-15T05:21:50;13.20;86.50
59961;DHT22;55902;-37.980;-63.602;2023-04-15T05:24:17;13.10;87.30
59961;DHT22;55902;-37.980;-63.602;2023-04-15T05:26:44;13.10;86.70
59961;DHT22;55902;-37.980;-63.602;2023-04-15T05:29:11;13.10;86.40
59961;DHT22;55902;-37.980;-63.602;2023-04-15T05:31:38;13.00;86.80
59961;DHT22;55902;-37.980;-63.602;2023-04-15T05:34:05;13.00;88.30
59961;DHT22;55902;-37.980;-63.602;2023-04-15T05:36:32;13.00;88.20
59961;DHT22;55902;-37.980;-63.602;2023-04-15T05:38:59;13.00;87.70
59961;DHT22;55902;-37.980;-63.602;2023-04-15T05:41:27;12.90;88.30
59961;DHT22;55902;-37.980;-63.602;2023-04-15T05:44:02;12.90;89.10
59961;DHT22;55902;-37.980;-63.602;2023-04-15T05:46:29;12.90;87.30
59961;DHT22;55902;-37.980;-63.602;2023-04-15T05:48:56;12.90;87.80
59961;DHT22;55902;-37.980;-63.602;2023-04-15T05:51:25;12.90;88.30
59961;DHT22;55902;-37.980;-63.602;2023-04-15T05:53:53;12.90;90.00
59961;DHT22;55902;-37.980;-63.602;2023-04-15T05:56:20;12.90;89.10
59961;DHT22;55902;-37.980;-63.602;2023-04-15T05:58:47;12.80;89.00
59961;DHT22;55902;-37.980;-63.602;2023-04-15T06:01:14;12.80;88.50
59961;DHT22;55902;-37.980;-63.602;2023-04-15T06:03:42;12.80;90.40
59961;DHT22;55902;-37.980;-63.602;2023-04-15T06:06:10;12.80;91.40
59961;DHT22;55902;-37.980;-63.602;2023-04-15T06:08:37;12.70;91.30
59961;DHT22;55902;-37.980;-63.602;2023-04-15T06:11:04;12.60;93.40
59961;DHT22;55902;-37.980;-63.602;2023-04-15T06:13:31;12.50;92.00
59961;DHT22;55902;-37.980;-63.602;2023-04-15T06:15:58;12.40;90.50
59961;DHT22;55902;-37.980;-63.602;2023-04-15T06:18:25;12.30;90.80
59961;DHT22;55902;-37.980;-63.602;2023-04-15T06:20:52;12.20;90.10
59961;DHT22;55902;-37.980;-63.602;2023-04-15T06:23:18;12.20;91.10
59961;DHT22;55902;-37.980;-63.602;2023-04-15T06:25:46;12.10;92.30
59961;DHT22;55902;-37.980;-63.602;2023-04-15T06:28:13;12.00;93.20
59961;DHT22;55902;-37.980;-63.602;2023-04-15T06:30:40;11.90;93.10
59961;DHT22;55902;-37.980;-63.602;2023-04-15T06:33:07;11.80;94.30
59961;DHT22;55902;-37.980;-63.602;2023-04-15T06:35:34;11.80;94.60
59961;DHT22;55902;-37.980;-63.602;2023-04-15T06:38:01;11.80;94.30
59961;DHT22;55902;-37.980;-63.602;2023-04-15T06:40:28;11.80;95.60
59961;DHT22;55902;-37.980;-63.602;2023-04-15T06:42:55;11.80;95.40
59961;DHT22;55902;-37.980;-63.602;2023-04-15T06:45:22;11.80;95.80
59961;DHT22;55902;-37.980;-63.602;2023-04-15T06:47:49;11.90;97.20
59961;DHT22;55902;-37.980;-63.602;2023-04-15T06:50:16;11.80;96.90
59961;DHT22;55902;-37.980;-63.602;2023-04-15T06:52:43;11.80;95.70
59961;DHT22;55902;-37.980;-63.602;2023-04-15T06:55:10;11.80;94.50
59961;DHT22;55902;-37.980;-63.602;2023-04-15T06:57:37;11.80;94.20
59961;DHT22;55902;-37.980;-63.602;2023-04-15T07:00:04;11.90;93.10
59961;DHT22;55902;-37.980;-63.602;2023-04-15T07:02:32;11.90;93.50
59961;DHT22;55902;-37.980;-63.602;2023-04-15T07:04:59;11.80;94.00
59961;DHT22;55902;-37.980;-63.602;2023-04-15T07:07:26;11.80;94.50
59961;DHT22;55902;-37.980;-63.602;2023-04-15T07:09:53;11.80;95.10
59961;DHT22;55902;-37.980;-63.602;2023-04-15T07:12:23;11.80;95.70
59961;DHT22;55902;-37.980;-63.602;2023-04-15T07:14:51;11.70;95.70
59961;DHT22;55902;-37.980;-63.602;2023-04-15T07:17:17;11.70;96.00
59961;DHT22;55902;-37.980;-63.602;2023-04-15T07:19:44;11.70;97.20
59961;DHT22;55902;-37.980;-63.602;2023-04-15T07:22:11;11.70;97.20
59961;DHT22;55902;-37.980;-63.602;2023-04-15T07:24:39;11.60;96.70
59961;DHT22;55902;-37.980;-63.602;2023-04-15T07:27:05;11.60;97.90
59961;DHT22;55902;-37.980;-63.602;2023-04-15T07:29:32;11.60;98.00
59961;DHT22;55902;-37.980;-63.602;2023-04-15T07:31:59;11.50;98.70
59961;DHT22;55902;-37.980;-63.602;2023-04-15T07:34:26;11.50;98.80
59961;DHT22;55902;-37.980;-63.602;2023-04-15T07:36:54;11.50;99.30
59961;DHT22;55902;-37.980;-63.602;2023-04-15T07:39:21;11.50;99.00
59961;DHT22;55902;-37.980;-63.602;2023-04-15T07:41:48;11.50;99.10
59961;DHT22;55902;-37.980;-63.602;2023-04-15T07:44:18;11.50;99.60
59961;DHT22;55902;-37.980;-63.602;2023-04-15T07:46:46;11.50;99.90
59961;DHT22;55902;-37.980;-63.602;2023-04-15T07:49:13;11.50;99.30
59961;DHT22;55902;-37.980;-63.602;2023-04-15T07:51:43;11.50;99.30
59961;DHT22;55902;-37.980;-63.602;2023-04-15T08:15:24;11.50;99.90
59961;DHT22;55902;-37.980;-63.602;2023-04-15T08:17:51;11.50;99.90
59961;DHT22;55902;-37.980;-63.602;2023-04-15T08:20:18;11.50;99.90
59961;DHT22;55902;-37.980;-63.602;2023-04-15T08:22:45;11.60;99.70
59961;DHT22;55902;-37.980;-63.602;2023-04-15T08:25:17;11.60;99.90
59961;DHT22;55902;-37.980;-63.602;2023-04-15T08:27:45;11.60;99.90
59961;DHT22;55902;-37.980;-63.602;2023-04-15T08:30:12;11.60;99.20
59961;DHT22;55902;-37.980;-63.602;2023-04-15T08:32:41;11.60;98.90
59961;DHT22;55902;-37.980;-63.602;2023-04-15T08:35:08;11.70;99.50
59961;DHT22;55902;-37.980;-63.602;2023-04-15T08:37:35;11.70;99.20
59961;DHT22;55902;-37.980;-63.602;2023-04-15T08:40:02;11.70;99.30
59961;DHT22;55902;-37.980;-63.602;2023-04-15T08:42:36;11.70;99.90
59961;DHT22;55902;-37.980;-63.602;2023-04-15T08:45:09;11.60;99.90
59961;DHT22;55902;-37.980;-63.602;2023-04-15T08:47:37;11.60;99.90
59961;DHT22;55902;-37.980;-63.602;2023-04-15T08:50:08;11.50;99.90
59961;DHT22;55902;-37.980;-63.602;2023-04-15T08:52:37;11.50;99.90
59961;DHT22;55902;-37.980;-63.602;2023-04-15T08:55:05;11.40;99.90
59961;DHT22;55902;-37.980;-63.602;2023-04-15T08:57:34;11.30;99.90
59961;DHT22;55902;-37.980;-63.602;2023-04-15T09:00:02;11.20;99.90
59961;DHT22;55902;-37.980;-63.602;2023-04-15T09:02:30;11.20;99.90
59961;DHT22;55902;-37.980;-63.602;2023-04-15T09:04:57;11.10;99.90
59961;DHT22;55902;-37.980;-63.602;2023-04-15T09:07:24;11.10;99.90
59961;DHT22;55902;-37.980;-63.602;2023-04-15T09:09:52;11.10;99.90
59961;DHT22;55902;-37.980;-63.602;2023-04-15T09:12:19;11.10;99.90
59961;DHT22;55902;-37.980;-63.602;2023-04-15T09:14:47;11.10;99.90
59961;DHT22;55902;-37.980;-63.602;2023-04-15T09:17:18;11.10;99.90
59961;DHT22;55902;-37.980;-63.602;2023-04-15T09:19:46;11.10;99.90
59961;DHT22;55902;-37.980;-63.602;2023-04-15T09:22:14;11.10;99.90
59961;DHT22;55902;-37.980;-63.602;2023-04-15T09:28:03;11.10;99.90
59961;DHT22;55902;-37.980;-63.602;2023-04-15T09:30:31;11.10;99.90
59961;DHT22;55902;-37.980;-63.602;2023-04-15T09:33:00;11.10;99.90
59961;DHT22;55902;-37.980;-63.602;2023-04-15T09:35:36;11.20;99.90
59961;DHT22;55902;-37.980;-63.602;2023-04-15T09:38:07;11.20;99.90
59961;DHT22;55902;-37.980;-63.602;2023-04-15T09:40:38;11.20;99.90
59961;DHT22;55902;-37.980;-63.602;2023-04-15T09:43:07;11.20;99.90
59961;DHT22;55902;-37.980;-63.602;2023-04-15T09:45:35;11.20;99.90
59961;DHT22;55902;-37.980;-63.602;2023-04-15T09:48:20;11.20;99.90
59961;DHT22;55902;-37.980;-63.602;2023-04-15T09:50:48;11.20;99.90
59961;DHT22;55902;-37.980;-63.602;2023-04-15T09:53:18;11.20;99.90
59961;DHT22;55902;-37.980;-63.602;2023-04-15T09:55:53;11.20;99.90
59961;DHT22;55902;-37.980;-63.602;2023-04-15T09:58:24;11.20;99.90
59961;DHT22;55902;-37.980;-63.602;2023-04-15T10:00:53;11.20;99.90
59961;DHT22;55902;-37.980;-63.602;2023-04-15T10:03:23;11.20;99.90
59961;DHT22;55902;-37.980;-63.602;2023-04-15T10:05:52;11.20;99.90
59961;DHT22;55902;-37.980;-63.602;2023-04-15T10:08:21;11.20;99.90
59961;DHT22;55902;-37.980;-63.602;2023-04-15T10:10:49;11.20;99.90
59961;DHT22;55902;-37.980;-63.602;2023-04-15T10:13:24;11.20;99.90
59961;DHT22;55902;-37.980;-63.602;2023-04-15T10:16:05;11.20;99.90
59961;DHT22;55902;-37.980;-63.602;2023-04-15T10:18:34;11.20;99.90
59961;DHT22;55902;-37.980;-63.602;2023-04-15T10:21:02;11.20;99.90
59961;DHT22;55902;-37.980;-63.602;2023-04-15T10:23:30;11.20;99.90
59961;DHT22;55902;-37.980;-63.602;2023-04-15T10:25:58;11.20;99.90
59961;DHT22;55902;-37.980;-63.602;2023-04-15T10:28:26;11.20;99.90
59961;DHT22;55902;-37.980;-63.602;2023-04-15T10:30:53;11.20;99.90
59961;DHT22;55902;-37.980;-63.602;2023-04-15T10:33:24;11.30;99.90
59961;DHT22;55902;-37.980;-63.602;2023-04-15T10:35:54;11.30;99.90
59961;DHT22;55902;-37.980;-63.602;2023-04-15T10:38:44;11.30;99.90
59961;DHT22;55902;-37.980;-63.602;2023-04-15T10:41:16;11.30;99.90
59961;DHT22;55902;-37.980;-63.602;2023-04-15T10:43:51;11.30;99.90
59961;DHT22;55902;-37.980;-63.602;2023-04-15T10:49:45;11.30;99.90
59961;DHT22;55902;-37.980;-63.602;2023-04-15T10:52:14;11.30;99.90
59961;DHT22;55902;-37.980;-63.602;2023-04-15T10:54:42;11.30;99.90
59961;DHT22;55902;-37.980;-63.602;2023-04-15T10:57:14;11.30;99.90
59961;DHT22;55902;-37.980;-63.602;2023-04-15T11:02:55;11.30;99.90
59961;DHT22;55902;-37.980;-63.602;2023-04-15T11:05:49;11.30;99.90
59961;DHT22;55902;-37.980;-63.602;2023-04-15T11:11:18;11.50;99.90
59961;DHT22;55902;-37.980;-63.602;2023-04-15T11:13:52;11.40;99.90
59961;DHT22;55902;-37.980;-63.602;2023-04-15T11:16:19;11.40;99.90
59961;DHT22;55902;-37.980;-63.602;2023-04-15T11:18:55;11.40;99.90
59961;DHT22;55902;-37.980;-63.602;2023-04-15T11:21:25;11.50;99.90
59961;DHT22;55902;-37.980;-63.602;2023-04-15T11:23:53;11.50;99.90
59961;DHT22;55902;-37.980;-63.602;2023-04-15T11:26:25;11.60;99.90
59961;DHT22;55902;-37.980;-63.602;2023-04-15T11:28:52;11.60;99.90
59961;DHT22;55902;-37.980;-63.602;2023-04-15T11:31:20;11.60;99.90
59961;DHT22;55902;-37.980;-63.602;2023-04-15T11:33:55;11.60;99.90
59961;DHT22;55902;-37.980;-63.602;2023-04-15T11:36:27;11.70;99.90
59961;DHT22;55902;-37.980;-63.602;2023-04-15T11:38:56;11.80;99.90
59961;DHT22;55902;-37.980;-63.602;2023-04-15T11:41:23;11.90;99.90
59961;DHT22;55902;-37.980;-63.602;2023-04-15T11:43:51;12.00;99.90
59961;DHT22;55902;-37.980;-63.602;2023-04-15T11:46:19;12.00;99.90
59961;DHT22;55902;-37.980;-63.602;2023-04-15T11:48:47;12.10;99.90
59961;DHT22;55902;-37.980;-63.602;2023-04-15T11:51:14;12.10;99.90
59961;DHT22;55902;-37.980;-63.602;2023-04-15T11:53:49;12.10;99.90
59961;DHT22;55902;-37.980;-63.602;2023-04-15T11:56:19;12.20;99.90
59961;DHT22;55902;-37.980;-63.602;2023-04-15T11:58:47;12.20;99.90
59961;DHT22;55902;-37.980;-63.602;2023-04-15T12:01:16;12.20;99.90
59961;DHT22;55902;-37.980;-63.602;2023-04-15T12:03:46;12.30;99.90
59961;DHT22;55902;-37.980;-63.602;2023-04-15T12:06:23;12.30;99.90
59961;DHT22;55902;-37.980;-63.602;2023-04-15T12:14:06;12.20;99.90
59961;DHT22;55902;-37.980;-63.602;2023-04-15T12:16:43;12.20;99.90
59961;DHT22;55902;-37.980;-63.602;2023-04-15T12:19:16;12.30;99.90
59961;DHT22;55902;-37.980;-63.602;2023-04-15T12:21:46;12.40;99.90
59961;DHT22;55902;-37.980;-63.602;2023-04-15T12:24:13;12.50;99.90
59961;DHT22;55902;-37.980;-63.602;2023-04-15T12:26:44;12.60;99.90
59961;DHT22;55902;-37.980;-63.602;2023-04-15T12:29:12;12.60;99.90
59961;DHT22;55902;-37.980;-63.602;2023-04-15T12:31:52;12.70;99.90
59961;DHT22;55902;-37.980;-63.602;2023-04-15T12:34:33;12.80;99.90
59961;DHT22;55902;-37.980;-63.602;2023-04-15T12:37:03;12.80;99.90
59961;DHT22;55902;-37.980;-63.602;2023-04-15T12:39:35;12.90;99.90
59961;DHT22;55902;-37.980;-63.602;2023-04-15T12:42:03;12.90;99.90
59961;DHT22;55902;-37.980;-63.602;2023-04-15T12:44:30;12.90;99.90
59961;DHT22;55902;-37.980;-63.602;2023-04-15T12:46:58;12.90;99.90
59961;DHT22;55902;-37.980;-63.602;2023-04-15T12:49:25;13.00;99.90
59961;DHT22;55902;-37.980;-63.602;2023-04-15T12:51:56;13.10;99.90
59961;DHT22;55902;-37.980;-63.602;2023-04-15T12:54:25;13.20;99.90
59961;DHT22;55902;-37.980;-63.602;2023-04-15T12:56:52;13.30;99.90
59961;DHT22;55902;-37.980;-63.602;2023-04-15T13:09:25;13.70;99.90
59961;DHT22;55902;-37.980;-63.602;2023-04-15T13:11:52;14.00;99.90
59961;DHT22;55902;-37.980;-63.602;2023-04-15T13:14:19;14.40;99.90
59961;DHT22;55902;-37.980;-63.602;2023-04-15T13:16:46;15.20;99.90
59961;DHT22;55902;-37.980;-63.602;2023-04-15T13:19:13;16.00;99.90
59961;DHT22;55902;-37.980;-63.602;2023-04-15T13:21:41;16.60;99.50
59961;DHT22;55902;-37.980;-63.602;2023-04-15T13:24:10;17.00;97.40
59961;DHT22;55902;-37.980;-63.602;2023-04-15T13:26:37;17.10;96.60
59961;DHT22;55902;-37.980;-63.602;2023-04-15T13:29:04;17.20;95.70
59961;DHT22;55902;-37.980;-63.602;2023-04-15T13:31:32;17.30;95.90
59961;DHT22;55902;-37.980;-63.602;2023-04-15T13:33:58;17.60;95.60
59961;DHT22;55902;-37.980;-63.602;2023-04-15T13:36:26;17.80;94.70
59961;DHT22;55902;-37.980;-63.602;2023-04-15T13:38:53;18.00;94.30
59961;DHT22;55902;-37.980;-63.602;2023-04-15T13:41:20;18.20;93.60
59961;DHT22;55902;-37.980;-63.602;2023-04-15T13:43:47;18.30;93.40
59961;DHT22;55902;-37.980;-63.602;2023-04-15T13:46:14;18.30;92.90
59961;DHT22;55902;-37.980;-63.602;2023-04-15T13:48:41;18.40;93.60
59961;DHT22;55902;-37.980;-63.602;2023-04-15T13:51:08;18.00;92.80
59961;DHT22;55902;-37.980;-63.602;2023-04-15T13:53:35;17.90;94.00
59961;DHT22;55902;-37.980;-63.602;2023-04-15T13:56:02;17.90;94.30
59961;DHT22;55902;-37.980;-63.602;2023-04-15T13:58:29;18.10;93.20
59961;DHT22;55902;-37.980;-63.602;2023-04-15T14:00:56;18.30;93.70
59961;DHT22;55902;-37.980;-63.602;2023-04-15T14:03:23;18.40;93.10
59961;DHT22;55902;-37.980;-63.602;2023-04-15T14:05:50;18.70;93.00
59961;DHT22;55902;-37.980;-63.602;2023-04-15T14:08:21;19.10;92.20
59961;DHT22;55902;-37.980;-63.602;2023-04-15T14:10:48;19.40;91.50
59961;DHT22;55902;-37.980;-63.602;2023-04-15T14:13:16;19.70;90.80
59961;DHT22;55902;-37.980;-63.602;2023-04-15T14:15:44;19.80;91.00
59961;DHT22;55902;-37.980;-63.602;2023-04-15T14:18:11;20.00;90.30
59961;DHT22;55902;-37.980;-63.602;2023-04-15T14:30:42;20.80;90.00
59961;DHT22;55902;-37.980;-63.602;2023-04-15T14:33:09;21.20;87.90
59961;DHT22;55902;-37.980;-63.602;2023-04-15T14:35:36;21.40;85.00
59961;DHT22;55902;-37.980;-63.602;2023-04-15T14:38:04;21.20;84.70
59961;DHT22;55902;-37.980;-63.602;2023-04-15T14:40:36;21.30;84.10
59961;DHT22;55902;-37.980;-63.602;2023-04-15T14:43:03;21.40;83.90
59961;DHT22;55902;-37.980;-63.602;2023-04-15T14:45:30;21.70;83.30
59961;DHT22;55902;-37.980;-63.602;2023-04-15T14:47:58;21.90;83.30
59961;DHT22;55902;-37.980;-63.602;2023-04-15T14:50:26;22.20;84.70
59961;DHT22;55902;-37.980;-63.602;2023-04-15T14:52:53;22.60;81.30
59961;DHT22;55902;-37.980;-63.602;2023-04-15T14:55:20;22.80;81.50
59961;DHT22;55902;-37.980;-63.602;2023-04-15T14:57:47;23.10;81.70
59961;DHT22;55902;-37.980;-63.602;2023-04-15T15:00:14;23.40;76.70
59961;DHT22;55902;-37.980;-63.602;2023-04-15T15:02:41;23.70;79.20
59961;DHT22;55902;-37.980;-63.602;2023-04-15T15:05:09;23.90;76.10
59961;DHT22;55902;-37.980;-63.602;2023-04-15T15:07:37;24.10;76.70
59961;DHT22;55902;-37.980;-63.602;2023-04-15T15:10:06;24.20;75.50
59961;DHT22;55902;-37.980;-63.602;2023-04-15T15:12:37;24.10;73.40
59961;DHT22;55902;-37.980;-63.602;2023-04-15T15:15:04;24.40;75.70
59961;DHT22;55902;-37.980;-63.602;2023-04-15T15:17:31;24.90;74.90
59961;DHT22;55902;-37.980;-63.602;2023-04-15T15:19:58;25.10;72.40
59961;DHT22;55902;-37.980;-63.602;2023-04-15T15:22:25;25.40;72.80
59961;DHT22;55902;-37.980;-63.602;2023-04-15T15:24:52;25.70;71.00
59961;DHT22;55902;-37.980;-63.602;2023-04-15T15:27:19;25.90;70.90
59961;DHT22;55902;-37.980;-63.602;2023-04-15T15:29:46;26.10;70.80
59961;DHT22;55902;-37.980;-63.602;2023-04-15T15:32:14;26.60;74.90
59961;DHT22;55902;-37.980;-63.602;2023-04-15T15:34:41;26.90;70.90
59961;DHT22;55902;-37.980;-63.602;2023-04-15T15:37:08;27.20;70.00
59961;DHT22;55902;-37.980;-63.602;2023-04-15T15:39:35;27.50;67.50
59961;DHT22;55902;-37.980;-63.602;2023-04-15T15:42:05;27.70;68.90
59961;DHT22;55902;-37.980;-63.602;2023-04-15T15:44:32;27.50;66.30
59961;DHT22;55902;-37.980;-63.602;2023-04-15T15:47:01;27.40;68.60
59961;DHT22;55902;-37.980;-63.602;2023-04-15T15:49:28;27.50;70.60
59961;DHT22;55902;-37.980;-63.602;2023-04-15T15:51:55;27.60;65.60
59961;DHT22;55902;-37.980;-63.602;2023-04-15T15:54:23;27.80;66.20
59961;DHT22;55902;-37.980;-63.602;2023-04-15T15:56:51;28.10;65.10
59961;DHT22;55902;-37.980;-63.602;2023-04-15T15:59:18;28.30;64.50
59961;DHT22;55902;-37.980;-63.602;2023-04-15T16:01:46;28.40;64.40
59961;DHT22;55902;-37.980;-63.602;2023-04-15T16:04:13;28.30;59.20
59961;DHT22;55902;-37.980;-63.602;2023-04-15T16:06:40;28.10;56.80
59961;DHT22;55902;-37.980;-63.602;2023-04-15T16:09:09;28.20;62.10
59961;DHT22;55902;-37.980;-63.602;2023-04-15T16:11:38;28.20;58.00